Aviation Digital Data Service (ADDS)

Output produced by METARs form (1600 UTC 28 April 2017)
found at http://aviationweather.gov/adds/metars/
 
KMGW 281154Z 2812/2912 00000KT P6SM BCFG FEW002 
     FM281400 18004KT P6SM SCT250 
     FM282300 18003KT P6SM BKN250 
     FM290700 19009KT P6SM VCSH BKN110